Введите код ICAO:



Lithuania (LT) КАУНАС (EYKA)

Lithuania (LT) КАУНАС (EYKA) Архив погоды
Фактическая погодаПрогноз погоды
Дата: 22 апреля 2019
Время: 21:50 UTC
Сводка составлена полностью автоматически
Ветер: 070°-1 м/с
Видимость: 10 км
Облачность: Не обнаружена
Температура: +6°C
Точка   росы: -3°C
Влажность: 52 %
QNH: 1028 гПа
Прогноз получен: 22 апреля 2019, в 17:01 UTC
Прогноз на 22-23 апреля с 18.00 до 18.00 UTC
Ветер: переменный - 2 м/с
Видимость: 9000 м
Нет существенных облаков
 ИЗМЕНЕНИЯ 23 апреля с 09.00 до 10.00 UTC
Ветер: 130°-7 м/с
 
METAR EYKA 222150Z AUTO 07002KT 9999 NCD 06/M03 Q1028TAF EYKA 221701Z 2218/2318 VRB04KT 9000 NSC BECMG 2309/2310 13014KT

Для получения погоды по необходимым аэродромам введите 4-буквенный код ICAO и нажмите ЗАПРОС.
Коды аэродромов можно скачать здесь.
Если погода отображается, а названия аэропорта нет, сообщите нам и мы добавим его в список.
В случие обнаружения некорректной раскодировки, сообщите нам и ошибка будет исправлена.
Эта информация взята из открытых источников и должна использоваться исключительно в ознакомительных целях. Не используйте ее для планирования полетов-перелетов или для мероприятий, где возможны материальные потери или человеческие жертвы. Для этого обращайтесь в официальные структуры.